createdAt,value
2022-11-12T00:00:44.616Z,77825.91
2022-11-12T00:03:11.772Z,77823.84
2022-11-12T00:05:40.281Z,77834.13
2022-11-12T00:08:07.311Z,77815.63
2022-11-12T00:10:36.401Z,77795.06
2022-11-12T00:13:07.067Z,77823.84
2022-11-12T00:15:34.244Z,77830.00
2022-11-12T00:18:01.851Z,77813.56
2022-11-12T00:20:29.421Z,77801.22
2022-11-12T00:22:56.458Z,77825.91
2022-11-12T00:25:23.647Z,77830.00
2022-11-12T00:27:50.732Z,77811.50
2022-11-12T00:30:18.046Z,77815.63
2022-11-12T00:32:45.075Z,77819.72
2022-11-12T00:35:14.085Z,77805.34
2022-11-12T00:37:41.579Z,77803.28
2022-11-12T00:40:09.196Z,77799.16
2022-11-12T00:42:37.057Z,77801.22
2022-11-12T00:45:05.623Z,77795.06
2022-11-12T00:47:33.227Z,77788.88
2022-11-12T00:50:00.340Z,77768.31
2022-11-12T00:52:27.472Z,77778.59
2022-11-12T00:54:54.945Z,77770.38
2022-11-12T00:57:22.030Z,77793.00
2022-11-12T00:59:49.038Z,77780.66
2022-11-12T01:02:16.152Z,77772.44
2022-11-12T01:04:43.164Z,77784.78
2022-11-12T01:07:10.643Z,77786.84
2022-11-12T01:09:37.686Z,77784.78
2022-11-12T01:12:04.773Z,77784.78
2022-11-12T01:14:32.054Z,77793.00
2022-11-12T01:16:59.083Z,77784.78
2022-11-12T01:19:26.158Z,77790.94
2022-11-12T01:21:53.450Z,77788.88
2022-11-12T01:24:20.864Z,77782.72
2022-11-12T01:26:48.020Z,77780.66
2022-11-12T01:29:16.663Z,77793.00
2022-11-12T01:31:44.376Z,77788.88
2022-11-12T01:34:12.697Z,77797.13
2022-11-12T01:36:40.061Z,77801.22
2022-11-12T01:39:08.415Z,77799.16
2022-11-12T01:41:36.844Z,77813.56
2022-11-12T01:44:14.652Z,77805.34
2022-11-12T01:46:44.472Z,77793.00
2022-11-12T01:49:14.170Z,77803.28
2022-11-12T01:51:42.547Z,77801.22
2022-11-12T01:54:09.919Z,77793.00
2022-11-12T01:56:39.496Z,77793.00
2022-11-12T01:59:12.263Z,77801.22
2022-11-12T02:01:40.538Z,77809.44
2022-11-12T02:04:07.812Z,77817.69
2022-11-12T02:06:34.965Z,77830.00
2022-11-12T02:09:02.009Z,77823.84
2022-11-12T02:11:29.184Z,77823.84
2022-11-12T02:14:01.389Z,77825.91
2022-11-12T02:16:30.484Z,77825.91
2022-11-12T02:18:57.511Z,77854.69
2022-11-12T02:21:25.943Z,77854.69
2022-11-12T02:24:03.607Z,77854.69
2022-11-12T02:26:34.208Z,77856.75
2022-11-12T02:29:01.619Z,77850.59
2022-11-12T02:31:29.050Z,77862.91
2022-11-12T02:33:56.475Z,77862.91
2022-11-12T02:36:23.560Z,77858.81
2022-11-12T02:38:50.791Z,77867.03
2022-11-12T02:41:17.990Z,77862.91
2022-11-12T02:43:45.089Z,77873.19
2022-11-12T02:46:12.205Z,77875.25
2022-11-12T02:48:41.556Z,77883.47
2022-11-12T02:51:11.026Z,77875.25
2022-11-12T02:53:38.164Z,77871.16
2022-11-12T02:56:05.301Z,77881.44
2022-11-12T02:58:32.545Z,77879.38
2022-11-12T03:00:59.969Z,77887.59
2022-11-12T03:03:27.042Z,77883.47
2022-11-12T03:05:55.309Z,77875.25
2022-11-12T03:08:22.329Z,77873.19
2022-11-12T03:10:50.201Z,77875.25
2022-11-12T03:13:17.289Z,77871.16
2022-11-12T03:15:49.387Z,77875.25
2022-11-12T03:18:16.573Z,77867.03
2022-11-12T03:20:43.650Z,77867.03
2022-11-12T03:23:11.308Z,77862.91
2022-11-12T03:25:42.001Z,77858.81
2022-11-12T03:28:14.046Z,77858.81
2022-11-12T03:30:41.660Z,77867.03
2022-11-12T03:33:09.581Z,77871.16
2022-11-12T03:35:36.897Z,77867.03
2022-11-12T03:38:04.005Z,77862.91
2022-11-12T03:40:31.228Z,77879.38
2022-11-12T03:42:58.820Z,77862.91
2022-11-12T03:45:26.547Z,77873.19
2022-11-12T03:47:54.841Z,77867.03
2022-11-12T03:50:22.890Z,77854.69
2022-11-12T03:52:50.604Z,77862.91
2022-11-12T03:55:18.192Z,77864.97
2022-11-12T03:57:45.544Z,77854.69
2022-11-12T04:00:13.000Z,77856.75
2022-11-12T04:02:42.143Z,77850.59
2022-11-12T04:05:28.114Z,77846.47
2022-11-12T04:08:20.525Z,77852.63
2022-11-12T04:10:49.740Z,77844.41
2022-11-12T04:13:29.490Z,77840.28
2022-11-12T04:16:19.974Z,77838.25
2022-11-12T04:19:07.939Z,77836.19
2022-11-12T04:21:50.843Z,77836.19
2022-11-12T04:24:46.571Z,77838.25
2022-11-12T04:27:14.741Z,77834.13
2022-11-12T04:30:02.782Z,77846.47
2022-11-12T04:32:30.314Z,77838.25
2022-11-12T04:34:58.431Z,77838.25
2022-11-12T04:37:26.050Z,77842.34
2022-11-12T04:39:53.361Z,77844.41
2022-11-12T04:42:38.833Z,77846.47
2022-11-12T04:45:07.340Z,77862.91
2022-11-12T04:47:39.053Z,77854.69
2022-11-12T04:50:13.020Z,77854.69
2022-11-12T04:52:41.074Z,77867.03
2022-11-12T04:55:08.460Z,77854.69
2022-11-12T04:57:35.781Z,77862.91
2022-11-12T05:00:03.617Z,77860.88
2022-11-12T05:02:31.600Z,77871.16
2022-11-12T05:05:02.247Z,77881.44
2022-11-12T05:07:29.544Z,77871.16
2022-11-12T05:09:56.584Z,77871.16
2022-11-12T05:12:23.626Z,77862.91
2022-11-12T05:14:51.948Z,77854.69
2022-11-12T05:17:19.622Z,77858.81
2022-11-12T05:19:48.875Z,77858.81
2022-11-12T05:22:33.663Z,77858.81
2022-11-12T05:25:03.074Z,77864.97
2022-11-12T05:27:30.242Z,77869.09
2022-11-12T05:29:57.430Z,77867.03
2022-11-12T05:32:24.573Z,77879.38
2022-11-12T05:34:51.678Z,77875.25
2022-11-12T05:37:18.866Z,77858.81
2022-11-12T05:39:45.885Z,77838.25
2022-11-12T05:42:14.059Z,77834.13
2022-11-12T05:44:41.571Z,77830.00
2022-11-12T05:47:08.881Z,77834.13
2022-11-12T05:49:36.907Z,77830.00
2022-11-12T05:52:04.214Z,77823.84
2022-11-12T05:54:31.465Z,77815.63
2022-11-12T05:56:58.496Z,77817.69
2022-11-12T05:59:25.558Z,77801.22
2022-11-12T06:01:52.846Z,77805.34
2022-11-12T06:04:19.857Z,77813.56
2022-11-12T06:06:46.923Z,77805.34
2022-11-12T06:09:14.275Z,77805.34
2022-11-12T06:11:41.399Z,77809.44
2022-11-12T06:14:09.776Z,77807.41
2022-11-12T06:16:36.901Z,77793.00
2022-11-12T06:19:04.945Z,77799.16
2022-11-12T06:21:32.084Z,77786.84
2022-11-12T06:23:59.737Z,77776.53
2022-11-12T06:26:27.366Z,77766.25
2022-11-12T06:28:55.530Z,77762.16
2022-11-12T06:31:23.000Z,77753.94
2022-11-12T06:33:50.042Z,77753.94
2022-11-12T06:36:18.039Z,77723.09
2022-11-12T06:38:45.486Z,77718.97
2022-11-12T06:41:12.802Z,77718.97
2022-11-12T06:43:41.864Z,77698.41
2022-11-12T06:46:11.270Z,77694.28
2022-11-12T06:48:38.368Z,77688.13
2022-11-12T06:51:06.259Z,77644.94
2022-11-12T06:53:33.284Z,77607.94
2022-11-12T06:56:06.921Z,77614.09
2022-11-12T06:58:34.257Z,77610.00
2022-11-12T07:01:19.468Z,77599.69
2022-11-12T07:03:47.083Z,77587.38
2022-11-12T07:06:14.971Z,77575.03
2022-11-12T07:08:42.392Z,77552.41
2022-11-12T07:11:09.727Z,77591.47
2022-11-12T07:13:36.878Z,77587.38
2022-11-12T07:16:04.480Z,77591.47
2022-11-12T07:18:32.917Z,77595.59
2022-11-12T07:21:04.260Z,77579.16
2022-11-12T07:23:32.601Z,77587.38
2022-11-12T07:26:00.236Z,77605.88
2022-11-12T07:28:29.256Z,77612.03
2022-11-12T07:31:00.941Z,77595.59
2022-11-12T07:33:28.182Z,77591.47
2022-11-12T07:36:05.503Z,77587.38
2022-11-12T07:38:33.827Z,77566.81
2022-11-12T07:41:01.572Z,77564.75
2022-11-12T07:43:30.207Z,77562.69
2022-11-12T07:45:58.157Z,77562.69
2022-11-12T07:48:25.835Z,77540.06
2022-11-12T07:50:53.217Z,77542.13
2022-11-12T07:53:20.679Z,77529.78
2022-11-12T07:55:55.173Z,77496.91
2022-11-12T07:58:23.095Z,77472.22
2022-11-12T08:00:51.178Z,77451.66
2022-11-12T08:03:18.639Z,77443.44
2022-11-12T08:05:46.619Z,77424.94
2022-11-12T08:08:13.836Z,77445.50
2022-11-12T08:10:41.115Z,77482.50
2022-11-12T08:13:08.642Z,77441.38
2022-11-12T08:15:35.680Z,77355.00
2022-11-12T08:18:03.214Z,77326.22
2022-11-12T08:20:30.339Z,77246.03
2022-11-12T08:22:59.939Z,77139.13
2022-11-12T08:25:27.448Z,77180.25
2022-11-12T08:27:58.198Z,77122.69
2022-11-12T08:30:28.515Z,77151.47
2022-11-12T08:33:05.001Z,77184.34
2022-11-12T08:35:32.321Z,77322.13
2022-11-12T08:37:59.926Z,77359.13
2022-11-12T08:40:27.478Z,77365.28
2022-11-12T08:43:01.480Z,77328.28
2022-11-12T08:45:28.705Z,77118.56
2022-11-12T08:48:02.203Z,77028.09
2022-11-12T08:50:29.671Z,76984.94
2022-11-12T08:53:03.887Z,76972.59
2022-11-12T08:55:35.838Z,77044.56
2022-11-12T08:58:03.814Z,76997.25
2022-11-12T09:00:35.331Z,77026.03
2022-11-12T09:03:02.842Z,76978.75
2022-11-12T09:05:29.921Z,76937.66
2022-11-12T09:08:07.557Z,76826.63
2022-11-12T09:10:34.642Z,76863.63
2022-11-12T09:13:21.063Z,76859.53
2022-11-12T09:15:48.644Z,76912.97
2022-11-12T09:18:17.098Z,76962.31
2022-11-12T09:20:45.040Z,77040.44
2022-11-12T09:23:13.003Z,77135.03
2022-11-12T09:25:40.130Z,77077.44
2022-11-12T09:28:16.717Z,76908.88
2022-11-12T09:30:46.568Z,76884.19
2022-11-12T09:33:14.595Z,77046.59
2022-11-12T09:35:43.900Z,77163.81
2022-11-12T09:38:11.427Z,77186.41
2022-11-12T09:40:42.113Z,77209.03
2022-11-12T09:43:16.415Z,77159.69
2022-11-12T09:45:50.333Z,77001.38
2022-11-12T09:48:32.647Z,76873.91
2022-11-12T09:50:59.793Z,76987.00
2022-11-12T09:53:43.958Z,77122.69
2022-11-12T09:56:12.300Z,77065.13
2022-11-12T09:58:39.956Z,77069.22
2022-11-12T10:01:11.385Z,77030.16
2022-11-12T10:03:56.559Z,77118.56
2022-11-12T10:06:24.037Z,77262.50
2022-11-12T10:08:51.704Z,77299.50
2022-11-12T10:11:24.569Z,77309.78
2022-11-12T10:14:10.393Z,77252.22
2022-11-12T10:16:43.342Z,77157.63
2022-11-12T10:19:10.528Z,77063.06
2022-11-12T10:21:41.449Z,77100.06
2022-11-12T10:24:08.878Z,77151.47
2022-11-12T10:26:35.954Z,77178.19
2022-11-12T10:29:23.213Z,77250.16
2022-11-12T10:31:50.292Z,77309.78
2022-11-12T10:34:19.179Z,77332.41
2022-11-12T10:36:56.883Z,77318.00
2022-11-12T10:39:30.687Z,77330.34
2022-11-12T10:42:24.355Z,77361.19
2022-11-12T10:44:52.117Z,77336.50
2022-11-12T10:47:30.595Z,77295.38
2022-11-12T10:50:03.945Z,77256.31
2022-11-12T10:52:31.064Z,77254.25
2022-11-12T10:55:14.781Z,77303.63
2022-11-12T10:57:41.956Z,77274.81
2022-11-12T11:00:17.063Z,77299.50
2022-11-12T11:02:48.737Z,77260.44
2022-11-12T11:05:28.052Z,77178.19
2022-11-12T11:07:55.226Z,77244.00
2022-11-12T11:10:23.666Z,77287.16
2022-11-12T11:13:09.057Z,77295.38
2022-11-12T11:15:37.988Z,77299.50
2022-11-12T11:18:08.738Z,77303.63
2022-11-12T11:20:44.027Z,77299.50
2022-11-12T11:23:17.211Z,77295.38
2022-11-12T11:25:44.271Z,77305.66
2022-11-12T11:28:14.308Z,77328.28
2022-11-12T11:30:59.799Z,77324.16
2022-11-12T11:33:32.018Z,77332.41
2022-11-12T11:36:05.170Z,77332.41
2022-11-12T11:38:35.094Z,77313.91
2022-11-12T11:41:16.956Z,77311.84
2022-11-12T11:43:45.631Z,77328.28
2022-11-12T11:46:31.440Z,77344.72
2022-11-12T11:49:04.578Z,77352.97
2022-11-12T11:51:51.301Z,77344.72
2022-11-12T11:54:55.788Z,77352.97
2022-11-12T11:57:24.032Z,77348.84
2022-11-12T12:00:09.985Z,77332.41
2022-11-12T12:02:43.872Z,77352.97
2022-11-12T12:05:10.968Z,77336.50
2022-11-12T12:07:41.364Z,77287.16
2022-11-12T12:10:14.493Z,77289.22
2022-11-12T12:12:51.306Z,77291.28
2022-11-12T12:15:31.129Z,77307.72
2022-11-12T12:17:59.629Z,77315.94
2022-11-12T12:20:30.539Z,77332.41
2022-11-12T12:23:05.969Z,77344.72
2022-11-12T12:25:35.316Z,77334.47
2022-11-12T12:28:04.288Z,77328.28
2022-11-12T12:30:31.794Z,77330.34
2022-11-12T12:33:06.987Z,77315.94
2022-11-12T12:35:34.799Z,77332.41
2022-11-12T12:38:05.311Z,77307.72
2022-11-12T12:40:33.898Z,77315.94
2022-11-12T12:43:02.647Z,77315.94
2022-11-12T12:45:41.567Z,77332.41
2022-11-12T12:48:19.570Z,77338.56
2022-11-12T12:50:48.810Z,77340.63
2022-11-12T12:53:16.785Z,77363.25
2022-11-12T12:55:44.902Z,77381.75
2022-11-12T12:58:16.451Z,77394.09
2022-11-12T13:00:47.727Z,77406.41
2022-11-12T13:03:14.837Z,77418.75
2022-11-12T13:05:41.929Z,77414.66
2022-11-12T13:08:13.109Z,77414.66
2022-11-12T13:10:41.452Z,77402.31
2022-11-12T13:13:17.534Z,77381.75
2022-11-12T13:15:55.611Z,77373.53
2022-11-12T13:18:38.098Z,77375.56
2022-11-12T13:21:10.553Z,77398.19
2022-11-12T13:24:00.731Z,77424.94
2022-11-12T13:26:57.422Z,77439.31
2022-11-12T13:29:27.529Z,77449.59
2022-11-12T13:32:14.153Z,77468.09
2022-11-12T13:34:41.782Z,77470.16
2022-11-12T13:37:12.546Z,77488.66
2022-11-12T13:39:41.231Z,77490.72
2022-11-12T13:42:33.596Z,77496.91
2022-11-12T13:45:00.879Z,77501.00
2022-11-12T13:47:29.460Z,77496.91
2022-11-12T13:49:57.183Z,77509.22
2022-11-12T13:52:24.211Z,77513.34
2022-11-12T13:55:04.440Z,77513.34
2022-11-12T13:57:32.901Z,77517.44
2022-11-12T14:00:10.331Z,77517.44
2022-11-12T14:02:41.364Z,77521.56
2022-11-12T14:05:13.390Z,77538.03
2022-11-12T14:07:43.892Z,77544.19
2022-11-12T14:10:30.271Z,77538.03
2022-11-12T14:13:15.465Z,77542.13
2022-11-12T14:16:01.849Z,77540.06
2022-11-12T14:18:32.213Z,77544.19
2022-11-12T14:21:01.941Z,77550.34
2022-11-12T14:23:29.169Z,77554.47
2022-11-12T14:25:56.538Z,77554.47
2022-11-12T14:28:24.473Z,77556.53
2022-11-12T14:30:51.691Z,77556.53
2022-11-12T14:33:21.129Z,77562.69
2022-11-12T14:35:48.702Z,77556.53
2022-11-12T14:38:18.891Z,77575.03
2022-11-12T14:40:50.283Z,77570.91
2022-11-12T14:43:27.929Z,77579.16
2022-11-12T14:45:55.764Z,77570.91
2022-11-12T14:48:23.908Z,77583.25
2022-11-12T14:50:52.156Z,77575.03
2022-11-12T14:53:25.187Z,77587.38
2022-11-12T14:55:53.958Z,77587.38
2022-11-12T14:58:21.498Z,77587.38
2022-11-12T15:00:50.035Z,77595.59
2022-11-12T15:03:35.815Z,77599.69
2022-11-12T15:06:02.845Z,77595.59
2022-11-12T15:08:30.774Z,77597.66
2022-11-12T15:10:58.360Z,77593.53
2022-11-12T15:13:27.023Z,77591.47
2022-11-12T15:15:58.676Z,77603.81
2022-11-12T15:18:26.584Z,77595.59
2022-11-12T15:21:05.922Z,77597.66
2022-11-12T15:23:32.961Z,77587.38
2022-11-12T15:26:00.309Z,77597.66
2022-11-12T15:28:27.755Z,77583.25
2022-11-12T15:31:24.273Z,77593.53
2022-11-12T15:33:51.298Z,77605.88
2022-11-12T15:36:19.213Z,77599.69
2022-11-12T15:38:51.325Z,77603.81
2022-11-12T15:41:22.635Z,77599.69
2022-11-12T15:43:50.152Z,77607.94
2022-11-12T15:46:17.300Z,77603.81
2022-11-12T15:48:44.407Z,77607.94
2022-11-12T15:51:12.000Z,77616.16
2022-11-12T15:53:39.328Z,77622.31
2022-11-12T15:56:08.733Z,77618.22
2022-11-12T15:58:37.408Z,77620.28
2022-11-12T16:01:05.286Z,77626.44
2022-11-12T16:03:32.517Z,77632.59
2022-11-12T16:06:07.206Z,77632.59
2022-11-12T16:08:35.952Z,77636.72
2022-11-12T16:11:03.102Z,77640.81
2022-11-12T16:13:31.402Z,77640.81
2022-11-12T16:15:58.435Z,77634.66
2022-11-12T16:18:25.525Z,77640.81
2022-11-12T16:20:52.854Z,77647.00
2022-11-12T16:23:19.864Z,77644.94
2022-11-12T16:25:48.010Z,77634.66
2022-11-12T16:28:15.859Z,77644.94
2022-11-12T16:30:43.751Z,77636.72
2022-11-12T16:33:11.298Z,77640.81
2022-11-12T16:35:38.813Z,77632.59
2022-11-12T16:38:15.839Z,77630.56
2022-11-12T16:40:42.978Z,77628.50
2022-11-12T16:43:10.419Z,77632.59
2022-11-12T16:45:39.194Z,77624.38
2022-11-12T16:48:13.848Z,77626.44
2022-11-12T16:50:41.014Z,77620.28
2022-11-12T16:53:08.054Z,77624.38
2022-11-12T16:55:35.111Z,77620.28
2022-11-12T16:58:02.239Z,77618.22
2022-11-12T17:00:29.908Z,77616.16
2022-11-12T17:02:57.274Z,77612.03
2022-11-12T17:05:24.888Z,77610.00
2022-11-12T17:07:55.825Z,77616.16
2022-11-12T17:10:25.990Z,77612.03
2022-11-12T17:12:53.703Z,77620.28
2022-11-12T17:15:20.866Z,77632.59
2022-11-12T17:17:47.901Z,77610.00
2022-11-12T17:20:15.022Z,77595.59
2022-11-12T17:22:42.391Z,77595.59
2022-11-12T17:25:10.024Z,77599.69
2022-11-12T17:27:37.098Z,77595.59
2022-11-12T17:30:05.367Z,77591.47
2022-11-12T17:32:32.766Z,77581.19
2022-11-12T17:35:00.589Z,77589.41
2022-11-12T17:37:27.665Z,77577.09
2022-11-12T17:39:55.662Z,77581.19
2022-11-12T17:42:22.975Z,77583.25
2022-11-12T17:44:50.144Z,77568.84
2022-11-12T17:47:19.059Z,77575.03
2022-11-12T17:49:46.157Z,77570.91
2022-11-12T17:52:13.431Z,77570.91
2022-11-12T17:54:40.946Z,77568.84
2022-11-12T17:57:07.967Z,77566.81
2022-11-12T17:59:35.166Z,77579.16
2022-11-12T18:02:02.190Z,77575.03
2022-11-12T18:04:30.944Z,77579.16
2022-11-12T18:06:58.344Z,77570.91
2022-11-12T18:09:25.693Z,77562.69
2022-11-12T18:11:56.813Z,77558.56
2022-11-12T18:14:24.620Z,77550.34
2022-11-12T18:16:51.908Z,77550.34
2022-11-12T18:19:20.366Z,77542.13
2022-11-12T18:21:47.568Z,77542.13
2022-11-12T18:24:15.315Z,77548.28
2022-11-12T18:26:44.315Z,77554.47
2022-11-12T18:29:12.558Z,77566.81
2022-11-12T18:31:40.708Z,77554.47
2022-11-12T18:34:09.866Z,77560.63
2022-11-12T18:36:37.717Z,77554.47
2022-11-12T18:39:05.060Z,77554.47
2022-11-12T18:41:33.848Z,77550.34
2022-11-12T18:44:00.964Z,77546.25
2022-11-12T18:46:29.461Z,77562.69
2022-11-12T18:48:56.539Z,77558.56
2022-11-12T18:51:23.648Z,77554.47
2022-11-12T18:53:50.674Z,77558.56
2022-11-12T18:56:18.477Z,77552.41
2022-11-12T18:58:45.632Z,77546.25
2022-11-12T19:01:16.875Z,77548.28
2022-11-12T19:03:44.143Z,77546.25
2022-11-12T19:06:12.612Z,77554.47
2022-11-12T19:08:39.795Z,77558.56
2022-11-12T19:11:07.938Z,77558.56
2022-11-12T19:13:36.050Z,77546.25
2022-11-12T19:16:04.015Z,77550.34
2022-11-12T19:18:31.409Z,77548.28
2022-11-12T19:21:18.975Z,77564.75
2022-11-12T19:23:50.102Z,77554.47
2022-11-12T19:26:20.280Z,77550.34
2022-11-12T19:28:47.317Z,77544.19
2022-11-12T19:31:15.221Z,77550.34
2022-11-12T19:33:42.242Z,77546.25
2022-11-12T19:36:10.381Z,77542.13
2022-11-12T19:38:37.476Z,77546.25
2022-11-12T19:41:08.083Z,77550.34
2022-11-12T19:43:35.153Z,77558.56
2022-11-12T19:46:02.290Z,77546.25
2022-11-12T19:48:31.208Z,77538.03
2022-11-12T19:51:02.849Z,77533.91
2022-11-12T19:53:30.914Z,77538.03
2022-11-12T19:56:01.925Z,77535.97
2022-11-12T19:58:29.774Z,77525.69
2022-11-12T20:01:07.287Z,77521.56
2022-11-12T20:03:34.573Z,77521.56
2022-11-12T20:06:02.283Z,77509.22
2022-11-12T20:08:29.873Z,77521.56
2022-11-12T20:10:57.240Z,77507.16
2022-11-12T20:13:24.666Z,77513.34
2022-11-12T20:15:51.984Z,77505.13
2022-11-12T20:18:20.497Z,77496.91
2022-11-12T20:20:51.665Z,77505.13
2022-11-12T20:23:18.815Z,77505.13
2022-11-12T20:25:46.221Z,77509.22
2022-11-12T20:28:13.321Z,77509.22
2022-11-12T20:30:42.332Z,77503.06
2022-11-12T20:33:09.391Z,77503.06
2022-11-12T20:35:36.913Z,77509.22
2022-11-12T20:38:04.250Z,77515.41
2022-11-12T20:40:31.939Z,77513.34
2022-11-12T20:42:59.071Z,77521.56
2022-11-12T20:45:27.154Z,77525.69
2022-11-12T20:47:57.388Z,77521.56
2022-11-12T20:50:24.528Z,77525.69
2022-11-12T20:52:51.684Z,77529.78
2022-11-12T20:55:18.724Z,77521.56
2022-11-12T20:57:46.292Z,77529.78
2022-11-12T21:00:14.831Z,77533.91
2022-11-12T21:02:44.459Z,77533.91
2022-11-12T21:05:11.581Z,77538.03
2022-11-12T21:07:38.620Z,77546.25
2022-11-12T21:10:06.146Z,77542.13
2022-11-12T21:12:33.252Z,77538.03
2022-11-12T21:15:00.296Z,77548.28
2022-11-12T21:17:27.384Z,77550.34
2022-11-12T21:19:54.394Z,77538.03
2022-11-12T21:22:21.539Z,77542.13
2022-11-12T21:24:48.673Z,77538.03
2022-11-12T21:27:17.480Z,77550.34
2022-11-12T21:29:44.755Z,77542.13
2022-11-12T21:32:11.858Z,77546.25
2022-11-12T21:34:38.968Z,77544.19
2022-11-12T21:37:06.233Z,77542.13
2022-11-12T21:39:33.277Z,77538.03
2022-11-12T21:42:00.336Z,77533.91
2022-11-12T21:44:27.437Z,77542.13
2022-11-12T21:46:54.638Z,77533.91
2022-11-12T21:49:21.691Z,77546.25
2022-11-12T21:51:48.734Z,77542.13
2022-11-12T21:54:15.857Z,77554.47
2022-11-12T21:56:44.062Z,77548.28
2022-11-12T21:59:11.311Z,77542.13
2022-11-12T22:01:40.671Z,77542.13
2022-11-12T22:04:07.890Z,77546.25
2022-11-12T22:06:35.900Z,77542.13
2022-11-12T22:09:03.007Z,77546.25
2022-11-12T22:11:30.097Z,77533.91
2022-11-12T22:13:57.269Z,77529.78
2022-11-12T22:16:25.620Z,77517.44
2022-11-12T22:18:54.061Z,77505.13
2022-11-12T22:21:22.171Z,77496.91
2022-11-12T22:23:49.342Z,77498.94
2022-11-12T22:26:17.511Z,77492.78
2022-11-12T22:28:44.917Z,77488.66
2022-11-12T22:31:13.069Z,77480.44
2022-11-12T22:33:40.406Z,77486.59
2022-11-12T22:36:17.465Z,77480.44
2022-11-12T22:38:45.116Z,77480.44
2022-11-12T22:41:16.240Z,77484.56
2022-11-12T22:43:43.999Z,77468.09
2022-11-12T22:46:11.773Z,77464.00
2022-11-12T22:48:38.987Z,77466.06
2022-11-12T22:51:07.320Z,77464.00
2022-11-12T22:53:34.857Z,77455.75
2022-11-12T22:56:03.212Z,77447.53
2022-11-12T22:58:30.632Z,77439.31
2022-11-12T23:00:58.278Z,77443.44
2022-11-12T23:03:25.411Z,77435.22
2022-11-12T23:05:56.740Z,77439.31
2022-11-12T23:08:24.285Z,77435.22
2022-11-12T23:10:52.946Z,77443.44
2022-11-12T23:13:20.738Z,77439.31
2022-11-12T23:15:48.745Z,77431.09
2022-11-12T23:18:16.193Z,77441.38
2022-11-12T23:20:44.270Z,77451.66
2022-11-12T23:23:11.423Z,77439.31
2022-11-12T23:25:38.626Z,77431.09
2022-11-12T23:28:07.751Z,77435.22
2022-11-12T23:30:35.292Z,77431.09
2022-11-12T23:33:02.891Z,77435.22
2022-11-12T23:35:33.138Z,77431.09
2022-11-12T23:38:00.211Z,77418.75
2022-11-12T23:40:30.924Z,77414.66
2022-11-12T23:42:59.081Z,77431.09
2022-11-12T23:45:26.097Z,77416.69
2022-11-12T23:47:55.544Z,77402.31
2022-11-12T23:50:22.638Z,77410.53
2022-11-12T23:52:50.034Z,77398.19
2022-11-12T23:55:17.071Z,77398.19
2022-11-12T23:57:44.746Z,77404.38
